createdAt,value
2023-03-26T13:00:50.653Z,15.01
2023-03-26T13:02:32.516Z,15.09
2023-03-26T13:04:00.585Z,15.12
2023-03-26T13:05:08.548Z,15.09
2023-03-26T13:06:48.556Z,15.06
2023-03-26T13:08:11.422Z,15.05
2023-03-26T13:09:24.095Z,15.03
2023-03-26T13:10:29.410Z,15.00
2023-03-26T13:11:43.355Z,14.97
2023-03-26T13:12:57.134Z,14.97
2023-03-26T13:14:14.150Z,14.96
2023-03-26T13:15:30.676Z,14.90
2023-03-26T13:16:32.558Z,14.95
2023-03-26T13:17:46.619Z,14.91
2023-03-26T13:19:05.453Z,14.88
2023-03-26T13:20:16.393Z,14.82
2023-03-26T13:21:20.823Z,14.79
2023-03-26T13:22:45.983Z,14.76
2023-03-26T13:24:10.813Z,14.73
2023-03-26T13:25:21.573Z,14.68
2023-03-26T13:26:38.203Z,14.63
2023-03-26T13:27:55.262Z,14.57
2023-03-26T13:29:02.816Z,14.51
2023-03-26T13:30:31.397Z,14.48
2023-03-26T13:31:49.332Z,14.43
2023-03-26T13:33:05.116Z,14.37
2023-03-26T13:34:26.465Z,14.29
2023-03-26T13:36:00.229Z,14.19
2023-03-26T13:37:25.118Z,14.08
2023-03-26T13:38:59.253Z,14.00
2023-03-26T13:40:32.988Z,13.89
2023-03-26T13:41:53.592Z,13.82
2023-03-26T13:43:14.036Z,13.76
2023-03-26T13:44:46.774Z,13.75
2023-03-26T13:46:08.873Z,13.73
2023-03-26T13:47:19.880Z,13.65
2023-03-26T13:48:27.683Z,13.63
2023-03-26T13:49:37.407Z,13.57
2023-03-26T13:50:42.971Z,13.51
2023-03-26T13:51:52.673Z,13.48
2023-03-26T13:53:06.865Z,13.44
2023-03-26T13:54:50.810Z,13.46
2023-03-26T13:56:01.470Z,13.45
2023-03-26T13:57:29.583Z,13.45
2023-03-26T13:58:38.877Z,13.40
2023-03-26T14:00:22.095Z,13.38
2023-03-26T14:01:41.374Z,13.33
2023-03-26T14:02:47.919Z,13.33
2023-03-26T14:04:08.456Z,13.35
2023-03-26T14:05:33.640Z,13.35
2023-03-26T14:06:46.851Z,13.32
2023-03-26T14:08:14.577Z,13.31
2023-03-26T14:09:27.147Z,13.26
2023-03-26T14:10:37.025Z,13.24
2023-03-26T14:12:00.340Z,13.21
2023-03-26T14:13:16.639Z,13.20
2023-03-26T14:14:29.140Z,13.19
2023-03-26T14:15:44.901Z,13.16
2023-03-26T14:16:54.667Z,13.15
2023-03-26T14:18:24.340Z,13.11
2023-03-26T14:19:53.889Z,13.09
2023-03-26T14:21:29.584Z,13.07
2023-03-26T14:22:47.534Z,13.02
2023-03-26T14:23:58.620Z,13.00
2023-03-26T14:25:17.099Z,12.95
2023-03-26T14:26:32.054Z,12.94
2023-03-26T14:28:11.295Z,12.91
2023-03-26T14:29:13.173Z,12.89
2023-03-26T14:30:23.920Z,12.88
2023-03-26T14:31:51.002Z,12.87
2023-03-26T14:33:27.069Z,12.88
2023-03-26T14:34:52.320Z,12.88
2023-03-26T14:36:13.660Z,12.85
2023-03-26T14:37:53.659Z,12.85
2023-03-26T14:39:17.199Z,12.83
2023-03-26T14:40:25.430Z,12.79
2023-03-26T14:41:40.544Z,12.77
2023-03-26T14:43:01.702Z,12.73
2023-03-26T14:44:12.566Z,12.71
2023-03-26T14:45:23.570Z,12.67
2023-03-26T14:46:56.792Z,12.66
2023-03-26T14:48:20.481Z,12.63
2023-03-26T14:49:49.936Z,12.60
2023-03-26T14:51:10.048Z,12.56
2023-03-26T14:52:20.771Z,12.56
2023-03-26T14:53:28.086Z,12.55
2023-03-26T14:54:34.557Z,12.52
2023-03-26T14:55:49.517Z,12.49
2023-03-26T14:56:53.927Z,12.46
2023-03-26T14:57:58.860Z,12.44
2023-03-26T14:59:12.674Z,12.43
2023-03-26T15:00:34.948Z,12.38
2023-03-26T15:02:10.658Z,12.34
2023-03-26T15:03:31.017Z,12.32
2023-03-26T15:04:48.126Z,12.31
2023-03-26T15:06:12.774Z,12.29
2023-03-26T15:07:20.792Z,12.27
2023-03-26T15:08:33.355Z,12.26
2023-03-26T15:09:57.435Z,12.24
2023-03-26T15:11:27.184Z,12.21
2023-03-26T15:12:32.938Z,12.19
2023-03-26T15:14:19.252Z,12.17
2023-03-26T15:15:26.834Z,12.14
2023-03-26T15:16:37.779Z,12.14
2023-03-26T15:17:58.619Z,12.14
2023-03-26T15:19:22.106Z,12.14
2023-03-26T15:20:41.855Z,12.13
2023-03-26T15:21:55.885Z,12.14
2023-03-26T15:23:00.769Z,12.14
2023-03-26T15:24:17.676Z,12.14
2023-03-26T15:25:38.119Z,12.15
2023-03-26T15:26:42.959Z,12.14
2023-03-26T15:28:22.503Z,12.13
2023-03-26T15:30:08.759Z,12.14
2023-03-26T15:31:26.405Z,12.17
2023-03-26T15:33:05.341Z,12.21
2023-03-26T15:34:25.928Z,12.23
2023-03-26T15:35:33.524Z,12.24
2023-03-26T15:36:53.844Z,12.25
2023-03-26T15:38:23.270Z,12.25
2023-03-26T15:40:01.408Z,12.25
2023-03-26T15:41:31.046Z,12.25
2023-03-26T15:42:51.752Z,12.24
2023-03-26T15:44:23.422Z,12.26
2023-03-26T15:45:31.493Z,12.27
2023-03-26T15:46:53.496Z,12.28
2023-03-26T15:48:11.889Z,12.27
2023-03-26T15:49:16.652Z,12.29
2023-03-26T15:50:39.701Z,12.32
2023-03-26T15:52:09.335Z,12.32
2023-03-26T15:53:48.235Z,12.31
2023-03-26T15:55:07.566Z,12.29
2023-03-26T15:56:16.155Z,12.29
2023-03-26T15:57:23.588Z,12.29
2023-03-26T15:58:31.077Z,12.29
2023-03-26T15:59:52.519Z,12.26
2023-03-26T16:01:27.155Z,12.24
2023-03-26T16:02:29.803Z,12.21
2023-03-26T16:04:22.865Z,12.20
2023-03-26T16:05:32.335Z,12.17
2023-03-26T16:06:34.578Z,12.16
2023-03-26T16:07:39.186Z,12.14
2023-03-26T16:09:04.885Z,12.14
2023-03-26T16:10:30.820Z,12.11
2023-03-26T16:11:57.939Z,12.06
2023-03-26T16:13:27.347Z,12.05
2023-03-26T16:14:35.407Z,12.03
2023-03-26T16:15:37.653Z,12.01
2023-03-26T16:16:53.039Z,11.99
2023-03-26T16:18:11.824Z,11.97
2023-03-26T16:19:20.189Z,11.95
2023-03-26T16:20:33.495Z,11.95
2023-03-26T16:21:42.902Z,11.92
2023-03-26T16:22:53.435Z,11.92
2023-03-26T16:24:20.555Z,11.91
2023-03-26T16:25:31.433Z,11.87
2023-03-26T16:27:08.069Z,11.85
2023-03-26T16:28:26.533Z,11.82
2023-03-26T16:29:30.729Z,11.81
2023-03-26T16:30:33.118Z,11.79
2023-03-26T16:31:38.239Z,11.77
2023-03-26T16:32:56.337Z,11.77
2023-03-26T16:34:09.293Z,11.74
2023-03-26T16:35:14.390Z,11.72
2023-03-26T16:36:37.014Z,11.71
2023-03-26T16:37:50.092Z,11.68
2023-03-26T16:39:17.285Z,11.68
2023-03-26T16:40:22.642Z,11.70
2023-03-26T16:41:30.538Z,11.73
2023-03-26T16:42:40.108Z,11.75
2023-03-26T16:43:55.955Z,11.78
2023-03-26T16:45:14.706Z,11.80
2023-03-26T16:46:36.706Z,11.81
2023-03-26T16:48:06.463Z,11.83
2023-03-26T16:49:21.635Z,11.85
2023-03-26T16:50:37.193Z,11.85
2023-03-26T16:51:39.392Z,11.88
2023-03-26T16:52:55.040Z,11.87
2023-03-26T16:54:39.793Z,11.87
2023-03-26T16:55:57.888Z,11.82
2023-03-26T16:57:17.295Z,11.78
2023-03-26T16:58:41.042Z,11.77
2023-03-26T17:00:08.653Z,11.76
2023-03-26T17:01:43.151Z,11.75
2023-03-26T17:02:57.009Z,11.76
2023-03-26T17:04:03.036Z,11.78
2023-03-26T17:05:18.960Z,11.81
2023-03-26T17:06:30.770Z,11.81
2023-03-26T17:07:42.002Z,11.81
2023-03-26T17:09:13.395Z,11.81
2023-03-26T17:10:37.584Z,11.81
2023-03-26T17:12:08.756Z,11.80
2023-03-26T17:13:23.342Z,11.77
2023-03-26T17:14:25.512Z,11.76
2023-03-26T17:15:43.170Z,11.75
2023-03-26T17:17:25.634Z,11.72
2023-03-26T17:18:50.027Z,11.71
2023-03-26T17:20:23.662Z,11.70
2023-03-26T17:22:01.375Z,11.68
2023-03-26T17:23:22.162Z,11.64
2023-03-26T17:24:27.960Z,11.63
2023-03-26T17:25:55.177Z,11.61
2023-03-26T17:27:25.112Z,11.60
2023-03-26T17:28:54.914Z,11.59
2023-03-26T17:30:32.420Z,11.57
2023-03-26T17:31:40.370Z,11.56
2023-03-26T17:33:04.007Z,11.55
2023-03-26T17:34:49.232Z,11.54
2023-03-26T17:36:11.942Z,11.53
2023-03-26T17:37:17.008Z,11.51
2023-03-26T17:38:24.732Z,11.51
2023-03-26T17:39:38.873Z,11.50
2023-03-26T17:41:00.311Z,11.49
2023-03-26T17:42:19.201Z,11.47
2023-03-26T17:43:53.099Z,11.47
2023-03-26T17:45:17.773Z,11.49
2023-03-26T17:46:33.188Z,11.51
2023-03-26T17:47:39.922Z,11.51
2023-03-26T17:48:47.190Z,11.53
2023-03-26T17:49:54.020Z,11.54
2023-03-26T17:51:02.925Z,11.56
2023-03-26T17:52:41.853Z,11.58
2023-03-26T17:53:43.905Z,11.55
2023-03-26T17:54:48.168Z,11.54
2023-03-26T17:55:51.615Z,11.52
2023-03-26T17:56:56.605Z,11.48
2023-03-26T17:58:07.452Z,11.41
2023-03-26T17:59:23.211Z,11.36
2023-03-26T18:00:47.184Z,11.27
2023-03-26T18:01:56.283Z,11.19
2023-03-26T18:03:08.004Z,11.13
2023-03-26T18:04:19.838Z,11.08
2023-03-26T18:05:25.073Z,11.03
2023-03-26T18:06:46.723Z,10.99
2023-03-26T18:08:20.054Z,10.94
2023-03-26T18:09:24.851Z,10.89
2023-03-26T18:10:49.641Z,10.86
2023-03-26T18:12:04.239Z,10.81
2023-03-26T18:13:41.360Z,10.75
2023-03-26T18:15:19.956Z,10.70
2023-03-26T18:16:25.634Z,10.66
2023-03-26T18:17:38.547Z,10.64
2023-03-26T18:18:58.055Z,10.62
2023-03-26T18:20:10.007Z,10.59
2023-03-26T18:21:19.817Z,10.57
2023-03-26T18:22:28.598Z,10.55
2023-03-26T18:23:37.822Z,10.55
2023-03-26T18:24:42.254Z,10.54
2023-03-26T18:25:52.585Z,10.51
2023-03-26T18:27:16.896Z,10.51
2023-03-26T18:28:18.678Z,10.48
2023-03-26T18:29:35.611Z,10.50
2023-03-26T18:30:47.439Z,10.49
2023-03-26T18:31:54.280Z,10.48
2023-03-26T18:33:14.069Z,10.50
2023-03-26T18:34:20.619Z,10.49
2023-03-26T18:35:24.268Z,10.49
2023-03-26T18:36:30.453Z,10.50
2023-03-26T18:37:34.455Z,10.52
2023-03-26T18:38:38.489Z,10.56
2023-03-26T18:40:02.312Z,10.55
2023-03-26T18:41:06.695Z,10.55
2023-03-26T18:42:22.836Z,10.58
2023-03-26T18:43:34.914Z,10.54
2023-03-26T18:44:37.342Z,10.56
2023-03-26T18:45:40.619Z,10.58
2023-03-26T18:46:43.622Z,10.58
2023-03-26T18:47:47.915Z,10.58
2023-03-26T18:48:49.871Z,10.58
2023-03-26T18:49:55.764Z,10.60
2023-03-26T18:51:05.987Z,10.60
2023-03-26T18:52:14.480Z,10.60
2023-03-26T18:53:32.501Z,10.62
2023-03-26T18:54:36.680Z,10.60
2023-03-26T18:55:39.753Z,10.57
2023-03-26T18:56:43.837Z,10.58
2023-03-26T18:57:51.617Z,10.57
2023-03-26T18:58:57.868Z,10.56
2023-03-26T19:00:17.339Z,10.55
2023-03-26T19:01:25.955Z,10.52
2023-03-26T19:02:28.310Z,10.48
2023-03-26T19:03:36.367Z,10.48
2023-03-26T19:04:38.671Z,10.42
2023-03-26T19:05:41.049Z,10.37
2023-03-26T19:06:44.352Z,10.34
2023-03-26T19:07:47.382Z,10.31
2023-03-26T19:08:49.713Z,10.26
2023-03-26T19:09:56.422Z,10.23
2023-03-26T19:11:02.438Z,10.20
2023-03-26T19:12:07.728Z,10.20
2023-03-26T19:13:15.219Z,10.17
2023-03-26T19:14:19.773Z,10.15
2023-03-26T19:15:23.289Z,10.11
2023-03-26T19:16:29.964Z,10.10
2023-03-26T19:17:38.824Z,10.09
2023-03-26T19:18:44.154Z,10.05
2023-03-26T19:19:46.363Z,10.02
2023-03-26T19:20:48.172Z,10.00
2023-03-26T19:21:50.779Z,9.98
2023-03-26T19:22:53.532Z,9.97
2023-03-26T19:23:56.479Z,9.95
2023-03-26T19:25:01.444Z,9.93
2023-03-26T19:26:07.860Z,9.91
2023-03-26T19:27:11.237Z,9.90
2023-03-26T19:28:22.871Z,9.91
2023-03-26T19:29:28.610Z,9.90
2023-03-26T19:30:33.986Z,9.88
2023-03-26T19:31:39.094Z,9.87
2023-03-26T19:32:41.228Z,9.86
2023-03-26T19:33:44.559Z,9.84
2023-03-26T19:34:48.453Z,9.82
2023-03-26T19:36:17.936Z,9.83
2023-03-26T19:37:25.459Z,9.79
2023-03-26T19:38:39.396Z,9.78
2023-03-26T19:39:44.378Z,9.76
2023-03-26T19:40:46.490Z,9.75
2023-03-26T19:41:51.735Z,9.76
2023-03-26T19:42:53.792Z,9.75
2023-03-26T19:43:59.878Z,9.75
2023-03-26T19:45:04.311Z,9.74
2023-03-26T19:46:06.570Z,9.74
2023-03-26T19:47:35.231Z,9.72
2023-03-26T19:48:45.897Z,9.72
2023-03-26T19:49:56.279Z,9.72
2023-03-26T19:51:05.019Z,9.73
2023-03-26T19:52:15.194Z,9.74
2023-03-26T19:53:25.555Z,9.75
2023-03-26T19:54:27.343Z,9.75
2023-03-26T19:55:29.438Z,9.75
2023-03-26T19:56:31.683Z,9.76
2023-03-26T19:57:38.144Z,9.77
2023-03-26T19:58:41.761Z,9.79
2023-03-26T19:59:43.677Z,9.79
2023-03-26T20:00:53.135Z,9.80
2023-03-26T20:01:55.081Z,9.82
2023-03-26T20:02:57.828Z,9.84
2023-03-26T20:04:07.589Z,9.85
2023-03-26T20:05:19.586Z,9.86
2023-03-26T20:06:30.821Z,9.86
2023-03-26T20:07:40.183Z,9.87
2023-03-26T20:08:42.895Z,9.88
2023-03-26T20:09:45.588Z,9.89
2023-03-26T20:10:47.584Z,9.89
2023-03-26T20:11:50.431Z,9.89
2023-03-26T20:12:52.789Z,9.90
2023-03-26T20:13:54.645Z,9.89
2023-03-26T20:14:56.614Z,9.89
2023-03-26T20:16:07.422Z,9.90
2023-03-26T20:17:14.587Z,9.89
2023-03-26T20:18:16.383Z,9.86
2023-03-26T20:19:19.269Z,9.83
2023-03-26T20:20:24.652Z,9.82
2023-03-26T20:21:26.750Z,9.81
2023-03-26T20:22:28.666Z,9.79
2023-03-26T20:23:30.561Z,9.77
2023-03-26T20:24:33.644Z,9.76
2023-03-26T20:25:49.265Z,9.74
2023-03-26T20:26:51.244Z,9.74
2023-03-26T20:27:55.445Z,9.73
2023-03-26T20:28:57.297Z,9.74
2023-03-26T20:29:59.140Z,9.75
2023-03-26T20:31:01.246Z,9.75
2023-03-26T20:32:06.670Z,9.76
2023-03-26T20:33:17.118Z,9.77
2023-03-26T20:34:23.684Z,9.78
2023-03-26T20:35:35.957Z,9.78
2023-03-26T20:36:39.242Z,9.78
2023-03-26T20:37:41.964Z,9.78
2023-03-26T20:38:45.198Z,9.78
2023-03-26T20:39:47.124Z,9.78
2023-03-26T20:40:49.708Z,9.79
2023-03-26T20:41:53.647Z,9.77
2023-03-26T20:42:55.569Z,9.78
2023-03-26T20:43:57.502Z,9.76
2023-03-26T20:44:59.322Z,9.76
2023-03-26T20:46:01.865Z,9.76
2023-03-26T20:47:03.929Z,9.76
2023-03-26T20:48:06.164Z,9.75
2023-03-26T20:49:08.116Z,9.76
2023-03-26T20:50:15.450Z,9.76
2023-03-26T20:51:17.944Z,9.76
2023-03-26T20:52:19.773Z,9.76
2023-03-26T20:53:21.552Z,9.78
2023-03-26T20:54:25.795Z,9.79
2023-03-26T20:55:28.457Z,9.78
2023-03-26T20:56:30.511Z,9.78
2023-03-26T20:57:33.772Z,9.80
2023-03-26T20:58:35.872Z,9.79
2023-03-26T20:59:37.716Z,9.81
2023-03-26T21:00:39.884Z,9.81
2023-03-26T21:01:42.279Z,9.83
2023-03-26T21:02:44.286Z,9.83
2023-03-26T21:03:46.570Z,9.86
2023-03-26T21:04:48.415Z,9.86
2023-03-26T21:05:52.516Z,9.88
2023-03-26T21:07:00.213Z,9.89
2023-03-26T21:08:05.854Z,9.87
2023-03-26T21:09:14.981Z,9.90
2023-03-26T21:10:18.534Z,9.89
2023-03-26T21:11:27.774Z,9.91
2023-03-26T21:12:39.249Z,9.92
2023-03-26T21:13:50.810Z,9.92
2023-03-26T21:14:55.951Z,9.94
2023-03-26T21:16:00.438Z,9.95
2023-03-26T21:17:03.278Z,9.94
2023-03-26T21:18:05.745Z,9.95
2023-03-26T21:19:10.311Z,9.96
2023-03-26T21:20:13.575Z,9.96
2023-03-26T21:21:35.859Z,9.97
2023-03-26T21:22:49.249Z,9.97
2023-03-26T21:24:17.349Z,9.98
2023-03-26T21:25:27.396Z,9.96
2023-03-26T21:26:44.127Z,9.96
2023-03-26T21:27:55.647Z,9.96
2023-03-26T21:28:59.503Z,9.97
2023-03-26T21:30:02.027Z,10.00
2023-03-26T21:31:06.216Z,10.02
2023-03-26T21:32:13.839Z,10.02
2023-03-26T21:33:15.634Z,10.03
2023-03-26T21:34:17.897Z,10.05
2023-03-26T21:35:20.505Z,10.05
2023-03-26T21:36:23.239Z,10.09
2023-03-26T21:37:25.875Z,10.10
2023-03-26T21:38:28.087Z,10.14
2023-03-26T21:39:30.494Z,10.18
2023-03-26T21:40:33.142Z,10.19
2023-03-26T21:42:05.262Z,10.22
2023-03-26T21:43:11.733Z,10.24
2023-03-26T21:44:14.599Z,10.23
2023-03-26T21:45:17.577Z,10.22
2023-03-26T21:46:20.091Z,10.20
2023-03-26T21:47:22.166Z,10.20
2023-03-26T21:48:24.502Z,10.17
2023-03-26T21:49:26.913Z,10.15
2023-03-26T21:50:29.214Z,10.13
2023-03-26T21:51:32.308Z,10.10
2023-03-26T21:52:35.119Z,10.06
2023-03-26T21:53:37.364Z,10.05
2023-03-26T21:54:40.981Z,10.02
2023-03-26T21:56:18.252Z,9.99
2023-03-26T21:57:32.180Z,9.96
2023-03-26T21:59:15.105Z,9.93
2023-03-26T22:00:18.984Z,9.87
2023-03-26T22:01:32.201Z,9.82
2023-03-26T22:03:06.194Z,9.80
2023-03-26T22:04:11.251Z,9.74
2023-03-26T22:05:23.367Z,9.70
2023-03-26T22:06:27.999Z,9.65
2023-03-26T22:08:01.789Z,9.59
2023-03-26T22:09:04.803Z,9.54
2023-03-26T22:10:07.234Z,9.51
2023-03-26T22:11:11.486Z,9.48
2023-03-26T22:12:13.346Z,9.43
2023-03-26T22:13:15.301Z,9.43
2023-03-26T22:14:18.174Z,9.38
2023-03-26T22:15:20.626Z,9.36
2023-03-26T22:16:25.559Z,9.36
2023-03-26T22:17:27.841Z,9.35
2023-03-26T22:18:30.292Z,9.33
2023-03-26T22:19:32.274Z,9.32
2023-03-26T22:20:34.351Z,9.31
2023-03-26T22:21:36.236Z,9.29
2023-03-26T22:22:38.110Z,9.31
2023-03-26T22:23:40.225Z,9.30
2023-03-26T22:24:42.385Z,9.31
2023-03-26T22:25:45.592Z,9.31
2023-03-26T22:26:47.499Z,9.34
2023-03-26T22:27:50.755Z,9.34
2023-03-26T22:28:53.382Z,9.35
2023-03-26T22:29:55.673Z,9.35
2023-03-26T22:30:58.360Z,9.35
2023-03-26T22:32:00.414Z,9.37
2023-03-26T22:33:02.252Z,9.40
2023-03-26T22:34:04.341Z,9.40
2023-03-26T22:35:07.240Z,9.42
2023-03-26T22:36:23.169Z,9.45
2023-03-26T22:37:26.077Z,9.48
2023-03-26T22:38:27.885Z,9.53
2023-03-26T22:39:29.802Z,9.59
2023-03-26T22:40:31.980Z,9.66
2023-03-26T22:41:33.792Z,9.72
2023-03-26T22:42:36.696Z,9.77
2023-03-26T22:43:39.083Z,9.81
2023-03-26T22:44:41.415Z,9.88
2023-03-26T22:45:49.947Z,9.93
2023-03-26T22:46:52.600Z,9.98
2023-03-26T22:48:03.439Z,10.00
2023-03-26T22:49:06.452Z,10.07
2023-03-26T22:50:10.872Z,10.12
2023-03-26T22:51:12.912Z,10.17
2023-03-26T22:52:14.825Z,10.19
2023-03-26T22:53:16.945Z,10.19
2023-03-26T22:54:18.898Z,10.19
2023-03-26T22:55:29.060Z,10.20
2023-03-26T22:56:31.991Z,10.21
2023-03-26T22:57:34.209Z,10.21
2023-03-26T22:58:36.381Z,10.22
2023-03-26T22:59:38.243Z,10.23
2023-03-26T23:00:40.144Z,10.24
2023-03-26T23:01:42.084Z,10.25
2023-03-26T23:02:47.614Z,10.32
2023-03-26T23:03:49.799Z,10.35
2023-03-26T23:04:52.752Z,10.39
2023-03-26T23:05:58.182Z,10.41
2023-03-26T23:07:00.267Z,10.42
2023-03-26T23:08:02.071Z,10.41
2023-03-26T23:09:07.232Z,10.41
2023-03-26T23:10:11.286Z,10.41
2023-03-26T23:11:17.289Z,10.44
2023-03-26T23:12:19.149Z,10.42
2023-03-26T23:13:22.084Z,10.41
2023-03-26T23:14:24.309Z,10.40
2023-03-26T23:15:26.242Z,10.39
2023-03-26T23:16:28.364Z,10.39
2023-03-26T23:17:30.314Z,10.39
2023-03-26T23:18:32.333Z,10.41
2023-03-26T23:19:34.688Z,10.42
2023-03-26T23:20:39.408Z,10.42
2023-03-26T23:21:41.555Z,10.45
2023-03-26T23:22:43.824Z,10.46
2023-03-26T23:23:46.312Z,10.49
2023-03-26T23:24:48.304Z,10.53
2023-03-26T23:25:51.989Z,10.56
2023-03-26T23:26:53.858Z,10.56
2023-03-26T23:27:55.750Z,10.56
2023-03-26T23:28:57.537Z,10.55
2023-03-26T23:29:59.504Z,10.56
2023-03-26T23:31:04.450Z,10.57
2023-03-26T23:32:24.026Z,10.58
2023-03-26T23:33:31.768Z,10.56
2023-03-26T23:34:34.159Z,10.53
2023-03-26T23:35:36.232Z,10.53
2023-03-26T23:36:38.086Z,10.54
2023-03-26T23:37:42.732Z,10.52
2023-03-26T23:38:49.049Z,10.50
2023-03-26T23:39:51.942Z,10.51
2023-03-26T23:40:57.442Z,10.49
2023-03-26T23:41:59.582Z,10.49
2023-03-26T23:43:01.466Z,10.47
2023-03-26T23:44:04.174Z,10.46
2023-03-26T23:45:06.855Z,10.45
2023-03-26T23:46:12.019Z,10.44
2023-03-26T23:47:16.849Z,10.45
2023-03-26T23:48:23.941Z,10.45
2023-03-26T23:49:26.826Z,10.46
2023-03-26T23:50:29.596Z,10.46
2023-03-26T23:51:32.548Z,10.43
2023-03-26T23:52:34.570Z,10.41
2023-03-26T23:53:36.592Z,10.41
2023-03-26T23:54:38.561Z,10.40
2023-03-26T23:55:47.545Z,10.40
2023-03-26T23:56:49.440Z,10.41
2023-03-26T23:57:51.713Z,10.43
2023-03-26T23:58:54.017Z,10.43
2023-03-26T23:59:56.459Z,10.44
